首页
METAR-TAF:

METAR-TAF

机场 :

基輔國際機場

基輔, 乌克兰

纬度: 50-24N, 经度: 030-34E, 海拔: 166米

当前天气观测

该预报发布于39分钟前的06:00 UTC
风速10节,风向东北
温度 23°C
湿度 61%
气压 1026 hPa
能见度10公里或以上
散云层高于4800英尺

METAR: UKKK 250600Z 04005MPS 9999 SCT048 23/15 Q1026 R08/70D NOSIG

时间: 09:39 (06:39 UTC)

预报

该预报发布于1小时和37分钟前的05:02 UTC
预报有效从25日的 06点(UTC)到 26日的 06点(UTC)
风速10节,风向东北,有时为19节阵风
能见度10公里或以上
散云层高于4000英尺
短暂存在
从 25日的 09点(UTC)到 25日的 18点(UTC)
散云层高于2000英尺, 积雨云.
成为
从 25日的 22点(UTC)到 25日的 24点(UTC)
风速6节,风向,有时为16节阵风

TAF: UKKK 250502Z 2506/2606 05005G10MPS 9999 SCT040 TX29/2513Z TN17/2602Z TEMPO 2509/2518 SCT020CB BECMG 2522/2524 09003G08MPS

超过4000个机场的气象观测和天气预报(METAR&TAF报告)。

可查询的气象台以黄色和红色小点在地图上表示。

将鼠标移到小点上方,可查看气象台名称。

然后点击查看天气观测和预报。

如需切换地图:点击带黑十字的绿色按钮放大地图;点击带横线的绿色按钮缩小地图;或者点击绿色箭头查看邻近地区的地图。


METAR-TAF: